createdAt,value
2023-08-11T00:02:35.599Z,13.93
2023-08-11T00:05:26.930Z,13.92
2023-08-11T00:08:19.748Z,13.92
2023-08-11T00:11:12.575Z,13.92
2023-08-11T00:14:04.217Z,13.91
2023-08-11T00:16:55.788Z,13.91
2023-08-11T00:19:47.500Z,13.90
2023-08-11T00:22:39.128Z,13.89
2023-08-11T00:25:32.022Z,13.82
2023-08-11T00:28:23.052Z,13.80
2023-08-11T00:31:15.374Z,13.80
2023-08-11T00:34:08.083Z,13.79
2023-08-11T00:36:59.472Z,13.76
2023-08-11T00:39:52.661Z,13.72
2023-08-11T00:42:45.056Z,13.71
2023-08-11T00:45:36.491Z,13.69
2023-08-11T00:48:27.866Z,13.67
2023-08-11T00:51:20.138Z,13.65
2023-08-11T00:54:12.135Z,13.65
2023-08-11T00:57:04.609Z,13.65
2023-08-11T00:59:57.456Z,13.66
2023-08-11T01:02:48.818Z,13.65
2023-08-11T01:05:44.771Z,13.62
2023-08-11T01:08:39.073Z,13.63
2023-08-11T01:11:34.593Z,13.65
2023-08-11T01:14:29.802Z,13.60
2023-08-11T01:17:23.017Z,13.66
2023-08-11T01:20:17.190Z,13.65
2023-08-11T01:23:09.116Z,13.61
2023-08-11T01:26:02.410Z,13.63
2023-08-11T01:28:54.703Z,13.66
2023-08-11T01:31:46.015Z,13.70
2023-08-11T01:34:37.589Z,13.76
2023-08-11T01:37:29.144Z,13.83
2023-08-11T01:40:20.308Z,13.84
2023-08-11T01:43:15.176Z,13.86
2023-08-11T01:46:06.513Z,13.89
2023-08-11T01:48:58.472Z,13.91
2023-08-11T01:51:49.491Z,13.92
2023-08-11T01:54:43.535Z,13.93
2023-08-11T01:57:36.970Z,13.96
2023-08-11T02:00:31.464Z,14.03
2023-08-11T02:03:23.444Z,14.01
2023-08-11T02:06:15.797Z,14.02
2023-08-11T02:09:09.503Z,14.08
2023-08-11T02:12:00.697Z,14.09
2023-08-11T02:14:52.190Z,14.07
2023-08-11T02:17:45.366Z,14.05
2023-08-11T02:20:36.931Z,14.13
2023-08-11T02:23:28.284Z,14.22
2023-08-11T02:26:19.718Z,14.26
2023-08-11T02:29:11.105Z,14.29
2023-08-11T02:32:04.461Z,14.38
2023-08-11T02:34:57.230Z,14.41
2023-08-11T02:37:48.334Z,14.40
2023-08-11T02:40:39.692Z,14.37
2023-08-11T02:43:31.233Z,14.38
2023-08-11T02:46:23.680Z,14.38
2023-08-11T02:49:15.214Z,14.41
2023-08-11T02:52:08.576Z,14.45
2023-08-11T02:55:00.188Z,14.52
2023-08-11T02:57:51.931Z,14.56
2023-08-11T03:00:43.334Z,14.61
2023-08-11T03:03:34.934Z,14.66
2023-08-11T03:06:25.934Z,14.71
2023-08-11T03:09:18.776Z,14.78
2023-08-11T03:12:10.594Z,14.80
2023-08-11T03:15:02.203Z,14.82
2023-08-11T03:17:55.683Z,14.85
2023-08-11T03:20:47.060Z,14.95
2023-08-11T03:23:38.495Z,14.94
2023-08-11T03:26:31.488Z,14.94
2023-08-11T03:29:23.050Z,14.97
2023-08-11T03:32:14.514Z,15.01
2023-08-11T03:35:06.446Z,15.07
2023-08-11T03:37:58.176Z,15.06
2023-08-11T03:40:49.260Z,15.07
2023-08-11T03:43:41.901Z,15.07
2023-08-11T03:46:33.364Z,15.13
2023-08-11T03:49:24.606Z,15.13
2023-08-11T03:52:16.235Z,15.17
2023-08-11T03:55:10.731Z,15.21
2023-08-11T03:58:02.154Z,15.19
2023-08-11T04:00:55.155Z,15.15
2023-08-11T04:03:46.466Z,15.18
2023-08-11T04:06:37.773Z,15.28
2023-08-11T04:09:29.217Z,15.30
2023-08-11T04:12:20.487Z,15.33
2023-08-11T04:15:12.212Z,15.33
2023-08-11T04:18:04.976Z,15.30
2023-08-11T04:20:56.155Z,15.35
2023-08-11T04:23:48.106Z,15.39
2023-08-11T04:26:39.695Z,15.40
2023-08-11T04:29:31.008Z,15.41
2023-08-11T04:32:22.481Z,15.50
2023-08-11T04:35:15.408Z,15.55
2023-08-11T04:38:06.883Z,15.51
2023-08-11T04:40:58.850Z,15.53
2023-08-11T04:43:50.368Z,15.54
2023-08-11T04:46:42.037Z,15.66
2023-08-11T04:49:33.479Z,15.68
2023-08-11T04:52:25.989Z,15.64
2023-08-11T04:55:17.570Z,15.66
2023-08-11T04:58:10.361Z,15.70
2023-08-11T05:01:04.468Z,15.73
2023-08-11T05:03:55.670Z,15.71
2023-08-11T05:06:47.050Z,15.78
2023-08-11T05:09:39.752Z,15.81
2023-08-11T05:12:31.403Z,15.83
2023-08-11T05:15:22.623Z,15.87
2023-08-11T05:18:14.173Z,15.89
2023-08-11T05:21:06.812Z,15.94
2023-08-11T05:23:58.148Z,15.88
2023-08-11T05:26:50.859Z,15.90
2023-08-11T05:29:46.161Z,15.93
2023-08-11T05:32:37.732Z,15.94
2023-08-11T05:35:30.421Z,15.96
2023-08-11T05:38:23.679Z,15.95
2023-08-11T05:41:14.874Z,16.03
2023-08-11T05:44:07.987Z,16.07
2023-08-11T05:46:58.989Z,16.13
2023-08-11T05:49:50.547Z,16.16
2023-08-11T05:52:41.880Z,16.19
2023-08-11T05:55:36.177Z,16.27
2023-08-11T05:58:27.109Z,16.34
2023-08-11T06:01:19.850Z,16.35
2023-08-11T06:04:11.039Z,16.44
2023-08-11T06:07:02.334Z,16.44
2023-08-11T06:09:53.603Z,16.48
2023-08-11T06:12:44.970Z,16.54
2023-08-11T06:15:36.281Z,16.60
2023-08-11T06:18:28.870Z,16.66
2023-08-11T06:21:20.195Z,16.72
2023-08-11T06:24:11.468Z,16.73
2023-08-11T06:27:02.805Z,16.71
2023-08-11T06:29:54.003Z,16.82
2023-08-11T06:32:45.372Z,16.92
2023-08-11T06:35:38.434Z,16.93
2023-08-11T06:38:31.732Z,16.94
2023-08-11T06:41:22.863Z,16.91
2023-08-11T06:44:14.165Z,16.96
2023-08-11T06:47:05.558Z,17.01
2023-08-11T06:49:56.884Z,17.07
2023-08-11T06:52:49.750Z,17.04
2023-08-11T06:55:41.155Z,17.04
2023-08-11T06:58:32.569Z,17.07
2023-08-11T07:01:24.108Z,17.18
2023-08-11T07:04:15.412Z,17.20
2023-08-11T07:07:07.354Z,17.22
2023-08-11T07:10:03.723Z,17.35
2023-08-11T07:12:55.341Z,17.36
2023-08-11T07:15:46.830Z,17.34
2023-08-11T07:18:38.221Z,17.44
2023-08-11T07:21:29.420Z,17.43
2023-08-11T07:24:20.947Z,17.50
2023-08-11T07:27:13.600Z,17.54
2023-08-11T07:30:05.648Z,17.57
2023-08-11T07:32:56.768Z,17.58
2023-08-11T07:35:48.099Z,17.58
2023-08-11T07:38:39.451Z,17.65
2023-08-11T07:41:30.874Z,17.71
2023-08-11T07:44:23.291Z,17.77
2023-08-11T07:47:14.578Z,17.85
2023-08-11T07:50:06.155Z,17.94
2023-08-11T07:52:57.315Z,18.03
2023-08-11T07:55:48.863Z,18.02
2023-08-11T07:58:40.496Z,18.12
2023-08-11T08:01:33.350Z,18.19
2023-08-11T08:04:24.950Z,18.35
2023-08-11T08:07:16.389Z,18.40
2023-08-11T08:10:09.563Z,18.50
2023-08-11T08:13:00.857Z,18.61
2023-08-11T08:15:52.653Z,18.66
2023-08-11T08:18:45.059Z,18.70
2023-08-11T08:21:36.472Z,18.78
2023-08-11T08:24:27.735Z,18.85
2023-08-11T08:27:24.856Z,18.87
2023-08-11T08:30:16.268Z,18.97
2023-08-11T08:33:08.916Z,19.11
2023-08-11T08:36:01.469Z,19.15
2023-08-11T08:38:52.759Z,19.17
2023-08-11T08:41:46.882Z,19.22
2023-08-11T08:44:39.144Z,19.30
2023-08-11T08:47:30.855Z,19.40
2023-08-11T08:50:23.780Z,19.52
2023-08-11T08:53:16.811Z,19.68
2023-08-11T08:56:08.753Z,19.75
2023-08-11T08:59:00.112Z,19.72
2023-08-11T09:01:52.385Z,19.71
2023-08-11T09:04:44.515Z,19.70
2023-08-11T09:07:36.316Z,19.74
2023-08-11T09:10:30.469Z,19.82
2023-08-11T09:13:22.427Z,19.97
2023-08-11T09:16:13.585Z,20.06
2023-08-11T09:19:05.751Z,20.08
2023-08-11T09:21:57.186Z,20.22
2023-08-11T09:24:48.548Z,20.31
2023-08-11T09:27:41.218Z,20.42
2023-08-11T09:30:32.825Z,20.55
2023-08-11T09:33:24.326Z,20.58
2023-08-11T09:36:15.963Z,20.68
2023-08-11T09:39:08.228Z,20.86
2023-08-11T09:41:59.519Z,20.88
2023-08-11T09:44:55.250Z,20.88
2023-08-11T09:47:47.135Z,21.13
2023-08-11T09:50:39.865Z,21.34
2023-08-11T09:53:31.425Z,21.35
2023-08-11T09:56:23.883Z,21.39
2023-08-11T09:59:17.890Z,21.44
2023-08-11T10:02:14.117Z,21.56
2023-08-11T10:05:06.964Z,21.69
2023-08-11T10:07:59.841Z,21.72
2023-08-11T10:10:51.886Z,21.80
2023-08-11T10:13:44.000Z,21.92
2023-08-11T10:16:35.879Z,22.00
2023-08-11T10:19:28.699Z,22.11
2023-08-11T10:22:20.400Z,22.01
2023-08-11T10:25:12.038Z,22.07
2023-08-11T10:28:03.976Z,22.18
2023-08-11T10:30:58.655Z,22.36
2023-08-11T10:33:50.139Z,22.44
2023-08-11T10:36:43.675Z,22.54
2023-08-11T10:39:35.589Z,22.69
2023-08-11T10:42:28.970Z,22.83
2023-08-11T10:45:20.737Z,22.92
2023-08-11T10:48:12.663Z,22.98
2023-08-11T10:51:04.046Z,23.01
2023-08-11T10:54:02.489Z,23.15
2023-08-11T10:56:54.066Z,23.26
2023-08-11T10:59:45.281Z,23.42
2023-08-11T11:02:36.969Z,23.37
2023-08-11T11:05:28.124Z,23.27
2023-08-11T11:08:19.508Z,23.21
2023-08-11T11:11:11.940Z,23.41
2023-08-11T11:14:03.575Z,23.13
2023-08-11T11:16:56.194Z,23.23
2023-08-11T11:19:48.025Z,23.26
2023-08-11T11:22:39.191Z,23.22
2023-08-11T11:25:30.128Z,23.15
2023-08-11T11:28:22.905Z,23.21
2023-08-11T11:31:14.747Z,23.42
2023-08-11T11:34:06.723Z,23.74
2023-08-11T11:36:58.195Z,23.66
2023-08-11T11:39:49.600Z,23.45
2023-08-11T11:42:40.876Z,23.72
2023-08-11T11:45:33.616Z,23.98
2023-08-11T11:48:25.691Z,23.91
2023-08-11T11:51:17.937Z,24.03
2023-08-11T11:54:09.359Z,23.98
2023-08-11T11:57:05.063Z,23.90
2023-08-11T11:59:58.928Z,23.88
2023-08-11T12:02:51.815Z,24.12
2023-08-11T12:05:43.225Z,24.19
2023-08-11T12:08:34.640Z,24.24
2023-08-11T12:11:26.385Z,24.36
2023-08-11T12:14:17.744Z,24.27
2023-08-11T12:17:08.985Z,24.24
2023-08-11T12:20:02.732Z,24.18
2023-08-11T12:22:54.211Z,24.10
2023-08-11T12:25:45.657Z,23.96
2023-08-11T12:28:37.300Z,24.14
2023-08-11T12:31:28.481Z,24.25
2023-08-11T12:34:19.885Z,24.53
2023-08-11T12:37:15.403Z,24.62
2023-08-11T12:40:10.883Z,24.97
2023-08-11T12:43:02.112Z,24.86
2023-08-11T12:45:53.285Z,24.73
2023-08-11T12:48:44.597Z,24.63
2023-08-11T12:51:36.529Z,24.72
2023-08-11T12:54:29.015Z,24.68
2023-08-11T12:57:20.217Z,24.67
2023-08-11T13:00:13.002Z,24.79
2023-08-11T13:03:04.537Z,24.70
2023-08-11T13:05:56.049Z,24.55
2023-08-11T13:08:49.217Z,24.64
2023-08-11T13:11:42.944Z,24.55
2023-08-11T13:14:34.319Z,24.66
2023-08-11T13:17:25.789Z,24.69
2023-08-11T13:20:17.020Z,24.56
2023-08-11T13:23:08.487Z,24.54
2023-08-11T13:25:59.516Z,24.50
2023-08-11T13:28:52.281Z,24.64
2023-08-11T13:31:43.586Z,24.97
2023-08-11T13:34:34.814Z,25.11
2023-08-11T13:37:26.393Z,24.88
2023-08-11T13:40:17.996Z,24.75
2023-08-11T13:43:09.447Z,24.65
2023-08-11T13:46:02.141Z,24.74
2023-08-11T13:48:53.505Z,25.03
2023-08-11T13:51:45.053Z,25.03
2023-08-11T13:54:36.339Z,25.08
2023-08-11T13:57:27.674Z,25.04
2023-08-11T14:00:19.432Z,24.96
2023-08-11T14:03:12.239Z,24.96
2023-08-11T14:06:03.330Z,24.97
2023-08-11T14:08:54.773Z,25.10
2023-08-11T14:11:46.651Z,25.14
2023-08-11T14:14:38.205Z,25.16
2023-08-11T14:17:29.773Z,25.31
2023-08-11T14:20:22.630Z,25.25
2023-08-11T14:23:14.268Z,25.14
2023-08-11T14:26:05.635Z,25.24
2023-08-11T14:28:57.163Z,25.46
2023-08-11T14:31:48.496Z,25.53
2023-08-11T14:34:39.933Z,25.39
2023-08-11T14:37:32.575Z,25.21
2023-08-11T14:40:24.017Z,25.46
2023-08-11T14:43:16.108Z,25.36
2023-08-11T14:46:07.633Z,25.34
2023-08-11T14:48:59.070Z,25.34
2023-08-11T14:51:50.601Z,25.48
2023-08-11T14:54:43.527Z,25.50
2023-08-11T14:57:34.713Z,25.59
2023-08-11T15:00:26.248Z,25.72
2023-08-11T15:03:17.585Z,25.74
2023-08-11T15:06:08.737Z,25.78
2023-08-11T15:09:00.140Z,25.75
2023-08-11T15:11:52.862Z,25.61
2023-08-11T15:14:44.253Z,25.62
2023-08-11T15:17:35.628Z,25.69
2023-08-11T15:20:26.956Z,25.77
2023-08-11T15:23:18.170Z,25.71
2023-08-11T15:26:10.830Z,25.73
2023-08-11T15:29:03.249Z,25.71
2023-08-11T15:31:54.947Z,25.77
2023-08-11T15:34:46.265Z,25.68
2023-08-11T15:37:37.654Z,25.78
2023-08-11T15:40:28.757Z,25.96
2023-08-11T15:43:20.142Z,25.94
2023-08-11T15:46:12.725Z,25.83
2023-08-11T15:49:04.173Z,25.79
2023-08-11T15:51:55.557Z,25.79
2023-08-11T15:54:46.649Z,25.65
2023-08-11T15:57:37.907Z,25.62
2023-08-11T16:00:29.318Z,25.71
2023-08-11T16:03:22.934Z,25.66
2023-08-11T16:06:14.180Z,25.69
2023-08-11T16:09:05.965Z,25.78
2023-08-11T16:11:57.170Z,25.80
2023-08-11T16:14:48.529Z,25.77
2023-08-11T16:17:39.745Z,25.59
2023-08-11T16:20:32.432Z,25.58
2023-08-11T16:23:23.772Z,25.52
2023-08-11T16:26:14.988Z,25.45
2023-08-11T16:29:08.744Z,25.61
2023-08-11T16:32:00.251Z,25.64
2023-08-11T16:34:51.257Z,25.66
2023-08-11T16:37:44.028Z,25.69
2023-08-11T16:40:35.223Z,25.73
2023-08-11T16:43:26.428Z,25.70
2023-08-11T16:46:19.448Z,25.60
2023-08-11T16:49:11.140Z,25.46
2023-08-11T16:52:02.468Z,25.51
2023-08-11T16:54:55.121Z,25.38
2023-08-11T16:57:46.690Z,25.17
2023-08-11T17:00:37.758Z,25.07
2023-08-11T17:03:30.162Z,25.16
2023-08-11T17:06:22.189Z,25.17
2023-08-11T17:09:13.426Z,25.08
2023-08-11T17:12:06.432Z,24.94
2023-08-11T17:14:57.767Z,24.85
2023-08-11T17:17:49.119Z,24.97
2023-08-11T17:20:40.514Z,24.92
2023-08-11T17:23:33.020Z,24.85
2023-08-11T17:26:24.410Z,24.98
2023-08-11T17:29:16.869Z,24.83
2023-08-11T17:32:08.586Z,24.63
2023-08-11T17:35:00.126Z,24.61
2023-08-11T17:37:51.224Z,24.57
2023-08-11T17:40:42.952Z,24.50
2023-08-11T17:43:34.371Z,24.57
2023-08-11T17:46:28.087Z,24.53
2023-08-11T17:49:19.288Z,24.45
2023-08-11T17:52:10.993Z,24.38
2023-08-11T17:55:02.769Z,24.36
2023-08-11T17:57:54.390Z,24.36
2023-08-11T18:00:45.437Z,24.28
2023-08-11T18:03:38.243Z,24.16
2023-08-11T18:06:29.774Z,24.04
2023-08-11T18:09:20.827Z,23.93
2023-08-11T18:12:12.423Z,23.85
2023-08-11T18:15:04.070Z,23.77
2023-08-11T18:17:55.409Z,23.71
2023-08-11T18:20:48.118Z,23.65
2023-08-11T18:23:39.559Z,23.58
2023-08-11T18:26:31.507Z,23.52
2023-08-11T18:29:23.157Z,23.45
2023-08-11T18:32:14.264Z,23.39
2023-08-11T18:35:06.266Z,23.32
2023-08-11T18:37:59.064Z,23.25
2023-08-11T18:40:50.130Z,23.18
2023-08-11T18:43:42.116Z,23.15
2023-08-11T18:46:35.161Z,23.12
2023-08-11T18:49:28.218Z,23.08
2023-08-11T18:52:19.541Z,23.04
2023-08-11T18:55:12.462Z,22.97
2023-08-11T18:58:04.587Z,22.95
2023-08-11T19:00:55.637Z,22.90
2023-08-11T19:03:46.999Z,22.86
2023-08-11T19:06:40.876Z,22.81
2023-08-11T19:09:32.244Z,22.75
2023-08-11T19:12:24.965Z,22.70
2023-08-11T19:15:16.156Z,22.63
2023-08-11T19:18:08.051Z,22.55
2023-08-11T19:20:59.422Z,22.50
2023-08-11T19:23:50.774Z,22.45
2023-08-11T19:26:42.559Z,22.42
2023-08-11T19:29:35.103Z,22.38
2023-08-11T19:32:26.406Z,22.36
2023-08-11T19:35:17.668Z,22.35
2023-08-11T19:38:09.000Z,22.35
2023-08-11T19:41:00.484Z,22.31
2023-08-11T19:43:51.804Z,22.25
2023-08-11T19:46:46.799Z,22.25
2023-08-11T19:49:40.682Z,22.22
2023-08-11T19:52:31.755Z,22.21
2023-08-11T19:55:23.053Z,22.18
2023-08-11T19:58:17.683Z,22.15
2023-08-11T20:01:09.141Z,22.13
2023-08-11T20:04:01.730Z,22.10
2023-08-11T20:06:52.870Z,22.11
2023-08-11T20:09:44.155Z,22.08
2023-08-11T20:12:42.063Z,22.02
2023-08-11T20:15:33.459Z,21.99
2023-08-11T20:18:24.876Z,21.97
2023-08-11T20:21:17.785Z,21.96
2023-08-11T20:24:09.111Z,21.97
2023-08-11T20:27:00.521Z,21.98
2023-08-11T20:29:51.906Z,21.93
2023-08-11T20:32:43.439Z,21.88
2023-08-11T20:35:34.842Z,21.84
2023-08-11T20:38:28.283Z,21.82
2023-08-11T20:41:19.558Z,21.77
2023-08-11T20:44:11.259Z,21.74
2023-08-11T20:47:02.691Z,21.70
2023-08-11T20:49:53.892Z,21.67
2023-08-11T20:52:45.339Z,21.63
2023-08-11T20:55:38.299Z,21.58
2023-08-11T20:58:29.441Z,21.54
2023-08-11T21:01:20.812Z,21.50
2023-08-11T21:04:12.858Z,21.50
2023-08-11T21:07:04.413Z,21.45
2023-08-11T21:09:55.879Z,21.38
2023-08-11T21:12:49.736Z,21.33
2023-08-11T21:15:41.370Z,21.27
2023-08-11T21:18:33.156Z,21.22
2023-08-11T21:21:24.501Z,21.15
2023-08-11T21:24:15.932Z,21.11
2023-08-11T21:27:07.283Z,21.09
2023-08-11T21:29:59.914Z,21.09
2023-08-11T21:32:52.736Z,21.04
2023-08-11T21:35:44.114Z,21.01
2023-08-11T21:38:35.612Z,21.01
2023-08-11T21:41:26.975Z,21.01
2023-08-11T21:44:19.250Z,20.96
2023-08-11T21:47:11.692Z,20.95
2023-08-11T21:50:03.385Z,20.93
2023-08-11T21:52:55.093Z,20.88
2023-08-11T21:55:46.774Z,20.84
2023-08-11T21:58:39.555Z,20.77
2023-08-11T22:01:30.723Z,20.75
2023-08-11T22:04:27.023Z,20.69
2023-08-11T22:07:18.568Z,20.65
2023-08-11T22:10:10.719Z,20.61
2023-08-11T22:13:02.150Z,20.58
2023-08-11T22:15:53.866Z,20.54
2023-08-11T22:18:48.208Z,20.52
2023-08-11T22:21:41.141Z,20.49
2023-08-11T22:24:41.133Z,20.43
2023-08-11T22:27:33.276Z,20.40
2023-08-11T22:30:24.398Z,20.35
2023-08-11T22:33:15.896Z,20.30
2023-08-11T22:36:07.325Z,20.26
2023-08-11T22:38:59.873Z,20.24
2023-08-11T22:41:52.522Z,20.23
2023-08-11T22:44:43.677Z,20.18
2023-08-11T22:47:35.055Z,20.13
2023-08-11T22:50:26.308Z,20.09
2023-08-11T22:53:19.673Z,20.06
2023-08-11T22:56:12.593Z,20.04
2023-08-11T22:59:05.418Z,20.04
2023-08-11T23:01:56.552Z,20.04
2023-08-11T23:04:47.784Z,20.03
2023-08-11T23:07:42.456Z,20.04
2023-08-11T23:10:36.027Z,20.03
2023-08-11T23:13:28.832Z,20.05
2023-08-11T23:16:20.968Z,20.05
2023-08-11T23:19:12.509Z,20.06
2023-08-11T23:22:03.818Z,20.09
2023-08-11T23:24:55.335Z,20.11
2023-08-11T23:27:46.790Z,20.10
2023-08-11T23:30:39.506Z,20.07
2023-08-11T23:33:30.844Z,20.05
2023-08-11T23:36:22.154Z,20.06
2023-08-11T23:39:14.172Z,20.04
2023-08-11T23:42:05.681Z,20.03
2023-08-11T23:44:57.227Z,20.01
2023-08-11T23:47:50.079Z,19.99
2023-08-11T23:50:41.371Z,19.98
2023-08-11T23:53:32.764Z,19.96
2023-08-11T23:56:24.153Z,19.94
2023-08-11T23:59:15.574Z,19.92
